Allenstown, New Hampshire
Current Conditions -  °F | °C
As of 10:51 AM on Tuesday 21 Oct 2014 (Local Time) from KCON Reporting Station
Light Rain Light Rain  
Wind Chill:   Ceiling: 4900
Heat Index:   Visibility: 9mi
Dew Point:   Wind: 5mph
Humidity: 83%   Direction: 20°NNE
Pressure: 29.99"   Gusts: NA
Location:  43.1606°N, 71.4143°W
Report Text: KCON 211451Z AUTO 02004KT 9SM -RA BKN049 OVC070 09/07 A2999 RMK AO2 SLP158 P0000 60000 T00940067 58003
Loading
Personal Weather Stations






























Interactive Weather Map
Tropical Storm Tracking
New forecast layout! Learn more

10-Day Weather Forecast

Advertisements
Track Severe Weather on mobile